YPGV/GOV METAR and TAF weather

Enter ICAO airport designator
Station Type Date Time Source
YPGV METAR 2020/02/16 20:00 UTC NOAA

YPGV 162000Z AUTO 21005KT 9999 // NCD 27/24 Q1008


Station Type Date Time Source
YPGV Decoded METAR 2020/02/16 20:00 UTC NOAA

Station name not available
Feb 16, 2020 - 03:00 PM EST / 2020.02.16 2000 UTC
Wind: from the SSW (210 degrees) at 6 MPH (5 KT):0
Visibility: greater than 7 mile(s):0
Temperature: 80 F (27 C)
Dew Point: 75 F (24 C)
Relative Humidity: 83%
Pressure (altimeter): 29.77 in. Hg (1008 hPa)
ob: YPGV 162000Z AUTO 21005KT 9999 // NCD 27/24 Q1008
cycle: 20

Station Type Date Time Source
YPGV TAF 2020/02/16 19:00 UTC NOAA

TAF
AMD YPGV 161918Z 1619/1708 29008KT 9999 BKN015
FM170000 31012KT 9999 SCT025 PROB30
TEMPO 1621/1708 VRB20G35KT 1000 TSRA BKN010 SCT040CB

Example: see airport list